KLVS

Las Vegas Municipal Airport

Las Vegas, New Mexico, USA
KLVS 171133Z 1712/1812 VRB06KT P6SM SCT120 FM171800 13008KT P6SM FEW060 FM172030 17010KT P6SM VCTS SCT070CB SCT150 TEMPO 1721/1723 VRB25G35KT 6SM -TSRA OVC060CB FM172300 VRB11KT P6SM VCSH SCT070 BKN110 FM180600 20007KT P6SM SCT110 SCT220
Issued Valid From Valid To
Aug-17 @ 11:33 UTC
(3 hours ago)
Aug-17 @ 12:00 UTC
(3 hours ago)
Aug-18 @ 12:00 UTC
(in 21 hours)
Aug-17 @ 12:00 to Aug-17 @ 18:00
KLVS 171133Z 1712/1812 VRB06KT P6SM SCT120
Wind Visibility Clouds
Variable at 6 knots Greater than 6 miles
  • Scattered at 12,000' AGL
From Aug-17 @ 18:00 to Aug-17 @ 20:30
FM171800 13008KT P6SM FEW060
Wind Visibility Clouds
130° at 8 knots Greater than 6 miles
  • Few at 6,000' AGL
From Aug-17 @ 20:30 to Aug-17 @ 23:00
FM172030 17010KT P6SM VCTS SCT070CB SCT150
Wind Visibility Clouds Conditions
170° at 10 knots Greater than 6 miles
  • Scattered at 7,000' AGL
  • Scattered at 15,000' AGL
  • Area Thunderstorm
Temporary Aug-17 @ 21:00 to Aug-17 @ 23:00
TEMPO 1721/1723 VRB25G35KT 6SM -TSRA OVC060CB
Wind Visibility Clouds Conditions
Variable at 25 knots
 Gusting to 35 knots
6 miles
  • Overcast at 6,000' AGL
  • Light Thunderstorm
  • Light Rain
From Aug-17 @ 23:00 to Aug-18 @ 06:00
FM172300 VRB11KT P6SM VCSH SCT070 BKN110
Wind Visibility Clouds
Variable at 11 knots Greater than 6 miles
  • Scattered at 7,000' AGL
  • Broken at 11,000' AGL
From Aug-18 @ 06:00 to Aug-18 @ 12:00
FM180600 20007KT P6SM SCT110 SCT220
Wind Visibility Clouds
200° at 7 knots Greater than 6 miles
  • Scattered at 11,000' AGL
  • Scattered at 22,000' AGL
KLVS 171133Z 1712/1812 VRB06KT P6SM SCT120 FM171800 13008KT P6SM FEW060 FM172030 17010KT P6SM VCTS SCT070CB SCT150 TEMPO 1721/1723 VRB25G35KT 6SM -TSRA OVC060CB FM172300 VRB11KT P6SM VCSH SCT070 BKN110 FM180600 20007KT P6SM SCT110 SCT220
Issued Aug-17 @ 11:33 UTC
(3 hours ago)
Valid From Aug-17 @ 12:00 UTC
(3 hours ago)
Valid To Aug-18 @ 12:00 UTC
(in 21 hours)
Aug-17 @ 12:00 - Aug-17 @ 18:00
Wind Visibility
Variable at 6 knots Greater than 6 miles
Clouds
  • Scattered at 12,000' AGL
From Aug-17 @ 18:00 - Aug-17 @ 20:30
Wind Visibility
130° at 8 knots Greater than 6 miles
Clouds
  • Few at 6,000' AGL
From Aug-17 @ 20:30 - Aug-17 @ 23:00
Wind Visibility
170° at 10 knots Greater than 6 miles
Clouds
  • Scattered at 7,000' AGL
  • Scattered at 15,000' AGL
Conditions
  • Area Thunderstorm
Temporary Aug-17 @ 21:00 - Aug-17 @ 23:00
Wind Visibility
Variable at 25 knots
 Gusting to 35 knots
6 miles
Clouds
  • Overcast at 6,000' AGL
Conditions
  • Light Thunderstorm
  • Light Rain
From Aug-17 @ 23:00 - Aug-18 @ 06:00
Wind Visibility
Variable at 11 knots Greater than 6 miles
Clouds
  • Scattered at 7,000' AGL
  • Broken at 11,000' AGL
From Aug-18 @ 06:00 - Aug-18 @ 12:00
Wind Visibility
200° at 7 knots Greater than 6 miles
Clouds
  • Scattered at 11,000' AGL
  • Scattered at 22,000' AGL